Crescent City, FL (32112)

02:47 EDT le 02 septembre 2014 (GMT -0400)
Beulah Church Rd,Fruitland | Change Station
CLOSE
Current Station
Stations météorologiques personnelles
Location: Crescent City, FL
Altitude: 45 ft
Stations météo à proximité

Alt. 45 ft 29.44 °N, 81.63 °W | Updated 4 seconds ago

Ciel dégagé
Ciel dégagé
74.1 ° F
Paraît 71 ° F
N
0.0
Vent Variable Vent de NE
Gusts 0.0 mph

Aujourd'hui
Haut(e) -- | Bas -- ° F
--% Risque de précip.
Hier
Haut(e) -- | Bas -- ° F
Precip. -- pouce
7:04 AM 7:46 PM
Lune montante, 48% visible
Pression 30.09 pouce
Visibilité 10.0 Miles terrestres
Nuages Ciel dégagé
indice de chaleur 71 ° F
Point de rosée 73 ° F
Humidité 97%
Précipitations 0.00 pouce
Profondeur de la couche neigeuse Non disponible.
UV 0 sur 12
Pollen 8.10 sur 12
Qualité de l'air Non disponible.
Flu Activity Non disponible.
METAR KXFL 020635Z AUTO 00000KT 10SM CLR 24/23 A3009 RMK AO2 T02400230

More Conditions Fewer Conditions

Pression 30.09 pouce
Visibilité 10.0 Miles terrestres
Nuages Ciel dégagé
indice de chaleur 71 ° F
Point de rosée 73 ° F
Humidité 97%
Précipitations 0.00 pouce
Profondeur de la couche neigeuse Non disponible.
UV 0 sur 12
Pollen 8.10 sur 12
Qualité de l'air Non disponible.
Flu Activity Non disponible.
METAR KXFL 020635Z AUTO 00000KT 10SM CLR 24/23 A3009 RMK AO2 T02400230

More Conditions Fewer Conditions

10-Day Weather Forecast

Almanac

Astronomie

Sep. 02, 2014 Lever Coucher
Temps réel 07:04 EDT 19:46 EDT
Crépuscule civil 06:39 EDT 20:11 EDT
Crépuscule nautique 06:11 EDT 20:39 EDT
Crépuscule astronomique 05:42 EDT 21:08 EDT
Lune 14:15 EDT 00:19 EDT
Durée de lumière visible 13h 31m
Longueur du jour
12h 42m
Tomorrow will be 1m 42s shorter.
Lune montante, 48% of the Moon is Illuminated
Aujourd'hui
Lune montante
Sep 2
Premier quartier
Sep 8
Pleine lune
Sep 15
Dernier quartier
Sep 24
Nouveau

Extrêmes aujourd'hui

State Highs State Lows

Community

WunderPhotos

Upload Photos

1,749,589 Photos téléchargées !

WunderBlogs® & News

Nearby

Épaisseur de neige

Station Depth Altitude
Pas de nouvelles chutes de neige

Activité sismique

Ville Distance Mag. Time & Date
No recent earthquake activity has been reported nearby.
Minimum magnitude displayed is 2.5.

Températures des eaux côtières

Lieu Température
Mayport (Bar Pilots Dock), FL 84.9 ° F
Fernandina Beach, FL 87.1 ° F
Trident Pier, FL 86.0 ° F

Stations météo à proximité